»·PEaware :: ASA841 KPDX-KBOI

ASA841 :: KPDX-KBOI

FLIGHT INFORMATION

Flight Status: Arrived
Operator:
Alaska Airlines
More flights by this operator :: More flights under this callsign
Pilot: Reece B. (30452)
Aircraft: BOEING 737-800
(B738)
More flights by this aircraft type
Origin: KPDX Portland Intl
United States
Destination: KBOI Boise Air Terminal/Gowen
United States
More flights between these airports :: More routes between these airports
Route: +WHAMY4 IMB HOSTS PARMO3
File this flight plan on PilotEdge
Remarks:
Altitude:
(Current/Filed)
31,000ft
Speed:
(Current/Filed)
450kts
Departed: 18-Jul-20 09:11 PM
Arrived: 18-Jul-20 10:03 PM
Distance/Time
Traveled:
298nm/0:52
Distance/Time
To Go:
Arrived

Flight Plot

Page will automatically refresh every two minutes.


Map Options




Map Legend


Flown Route
Filed Route
Departure Airport
Arrival Airport
Navaid (VOR, NDB)
Fix

Horizontal Profiles

Position Reports

Time Latitude Longitude Heading Altitude Ground
Speed
18-Jul-20 20:38 45.587374 -122.593919 11 32ft 0kts
18-Jul-20 20:39 45.587374 -122.593919 11 32ft 0kts
18-Jul-20 20:40 45.587374 -122.593919 11 32ft 0kts
18-Jul-20 20:41 45.587374 -122.593919 11 32ft 0kts
18-Jul-20 20:42 45.587374 -122.593919 11 32ft 0kts
18-Jul-20 20:42 45.587374 -122.593919 11 32ft 0kts
18-Jul-20 20:44 45.587374 -122.593919 11 32ft 0kts
18-Jul-20 20:45 45.587374 -122.593919 11 32ft 0kts
18-Jul-20 20:45 45.587374 -122.593919 11 32ft 0kts
18-Jul-20 20:46 45.587374 -122.593919 11 32ft 0kts
18-Jul-20 20:48 45.587374 -122.593919 11 32ft 0kts
18-Jul-20 20:48 45.587374 -122.593919 11 32ft 0kts
18-Jul-20 20:49 45.587374 -122.593919 11 32ft 0kts
18-Jul-20 20:50 45.587374 -122.593919 11 32ft 0kts
18-Jul-20 20:51 45.587374 -122.593919 11 32ft 0kts
18-Jul-20 20:52 45.587374 -122.593919 11 32ft 0kts
18-Jul-20 20:53 45.587374 -122.593919 11 32ft 0kts
18-Jul-20 20:55 45.587374 -122.593919 11 32ft 0kts
18-Jul-20 20:55 45.587374 -122.593919 11 32ft 0kts
18-Jul-20 20:56 45.587374 -122.593919 11 32ft 0kts
18-Jul-20 20:57 45.587374 -122.593919 11 32ft 0kts
18-Jul-20 20:58 45.587374 -122.593919 11 32ft 0kts
18-Jul-20 20:59 45.586913 -122.594355 66 32ft 2kts
18-Jul-20 21:00 45.586949 -122.595074 123 32ft 1kts
18-Jul-20 21:01 45.586965 -122.595110 121 32ft 0kts
18-Jul-20 21:02 45.586965 -122.595110 121 32ft 0kts
18-Jul-20 21:03 45.586965 -122.595110 121 32ft 0kts
18-Jul-20 21:04 45.586962 -122.595102 121 32ft 1kts
18-Jul-20 21:05 45.585446 -122.592275 128 32ft 9kts
18-Jul-20 21:06 45.583781 -122.589100 117 32ft 12kts
18-Jul-20 21:07 45.582303 -122.585267 119 32ft 9kts
18-Jul-20 21:08 45.581477 -122.583632 160 32ft 0kts
18-Jul-20 21:09 45.580783 -122.584521 293 32ft 9kts
18-Jul-20 21:10 45.595685 -122.624301 297 1300ft 178kts
18-Jul-20 21:11 45.629821 -122.703046 302 3646ft 266kts
18-Jul-20 21:12 45.665806 -122.797775 286 7426ft 283kts
18-Jul-20 21:13 45.648232 -122.906722 223 10573ft 315kts
18-Jul-20 21:14 45.559810 -122.889957 141 12582ft 371kts
18-Jul-20 21:15 45.502803 -122.767220 111 14997ft 392kts
18-Jul-20 21:16 45.458890 -122.626029 111 17668ft 403kts
18-Jul-20 21:17 45.412535 -122.477312 110 19977ft 419kts
18-Jul-20 21:18 45.364606 -122.324104 111 22012ft 436kts
18-Jul-20 21:19 45.315009 -122.166351 110 23889ft 449kts
18-Jul-20 21:20 45.264306 -122.006147 110 25591ft 462kts
18-Jul-20 21:21 45.217788 -121.833865 106 27098ft 474kts
18-Jul-20 21:22 45.172084 -121.656579 106 28560ft 485kts
18-Jul-20 21:23 45.125270 -121.475302 106 29873ft 496kts
18-Jul-20 21:24 45.078839 -121.296570 107 31128ft 499kts
18-Jul-20 21:25 45.032565 -121.119478 107 31155ft 498kts
18-Jul-20 21:26 44.984138 -120.935732 107 31151ft 498kts
18-Jul-20 21:27 44.935390 -120.752223 107 31155ft 506kts
18-Jul-20 21:28 44.885565 -120.566165 107 31154ft 513kts
18-Jul-20 21:29 44.834868 -120.378377 107 31155ft 513kts
18-Jul-20 21:30 44.783804 -120.190361 108 31157ft 514kts
18-Jul-20 21:31 44.733913 -120.008244 108 31170ft 515kts
18-Jul-20 21:32 44.682298 -119.821274 108 31173ft 516kts
18-Jul-20 21:33 44.629174 -119.636029 111 31173ft 517kts
18-Jul-20 21:34 44.573877 -119.453494 110 29290ft 511kts
18-Jul-20 21:35 44.520425 -119.272730 110 25348ft 511kts
18-Jul-20 21:36 44.469021 -119.098702 110 24179ft 502kts
18-Jul-20 21:37 44.418186 -118.927578 111 24181ft 503kts
18-Jul-20 21:38 44.361892 -118.739394 111 24186ft 506kts
18-Jul-20 21:39 44.307396 -118.558546 111 24192ft 506kts
18-Jul-20 21:40 44.252619 -118.378048 111 24192ft 505kts
18-Jul-20 21:41 44.200437 -118.207152 112 23548ft 447kts
18-Jul-20 21:42 44.152838 -118.052612 112 22559ft 440kts
18-Jul-20 21:43 44.105454 -117.899821 112 20833ft 411kts
18-Jul-20 21:44 44.061880 -117.761486 113 18525ft 374kts
18-Jul-20 21:45 44.021220 -117.634382 112 16420ft 345kts
18-Jul-20 21:46 43.984014 -117.517261 113 14521ft 322kts
18-Jul-20 21:47 43.947716 -117.406076 112 12868ft 311kts
18-Jul-20 21:48 43.913440 -117.298160 113 11429ft 301kts
18-Jul-20 21:49 43.880618 -117.195156 113 10041ft 290kts
18-Jul-20 21:50 43.848248 -117.094004 113 8636ft 282kts
18-Jul-20 21:51 43.816308 -116.995322 114 8063ft 282kts
18-Jul-20 21:52 43.784220 -116.896521 114 8061ft 280kts
18-Jul-20 21:53 43.752269 -116.798137 113 8058ft 280kts
18-Jul-20 21:54 43.720732 -116.699553 113 7909ft 280kts
18-Jul-20 21:55 43.691598 -116.608813 113 7683ft 224kts
18-Jul-20 21:56 43.667140 -116.532973 113 7258ft 229kts
18-Jul-20 21:57 43.640749 -116.451188 113 7306ft 232kts
18-Jul-20 21:58 43.617207 -116.378277 113 6340ft 184kts
18-Jul-20 21:59 43.598145 -116.318220 112 4452ft 166kts
18-Jul-20 22:00 43.578207 -116.260181 114 3196ft 162kts
18-Jul-20 22:01 43.562958 -116.215803 114 2861ft 49kts
18-Jul-20 22:02 43.563669 -116.214361 295 2862ft 17kts
18-Jul-20 22:03 43.565806 -116.220630 294 2856ft 18kts
18-Jul-20 22:04 43.567875 -116.224666 76 2851ft 1kts
18-Jul-20 22:05 43.567736 -116.224299 117 2852ft 0kts
18-Jul-20 22:06 43.567736 -116.224299 117 2852ft 0kts
18-Jul-20 22:07 43.567736 -116.224299 117 2852ft 0kts
18-Jul-20 22:08 43.567736 -116.224299 117 2852ft 0kts
18-Jul-20 22:09 43.567736 -116.224299 117 2852ft 0kts
18-Jul-20 22:10 43.567736 -116.224299 117 2852ft 0kts
18-Jul-20 22:11 43.567736 -116.224299 117 2852ft 0kts
18-Jul-20 22:12 43.567736 -116.224299 117 2852ft 0kts
18-Jul-20 22:13 43.567736 -116.224299 117 2852ft 0kts
18-Jul-20 22:14 43.567736 -116.224299 117 2852ft 0kts
18-Jul-20 22:15 43.567736 -116.224299 117 2852ft 0kts
18-Jul-20 22:16 43.567736 -116.224299 117 2852ft 0kts
18-Jul-20 22:17 43.567736 -116.224299 117 2852ft 0kts

Navigation Log

Ident Type
Flight plan parsing failed, navigation log unavailable